Violet, Louisiana
Current Conditions -  °F | °C
As of 9:55 PM on Thursday 20 Nov 2014 (Local Time) from KNBG Reporting Station
Few Clouds Few Clouds  
Wind Chill: 54°   Ceiling: Unl
Heat Index: 54°   Visibility: 10mi
Dew Point: 45°   Wind: 6mph
Humidity: 72%   Direction: 150°SSE
Pressure: 30.24"   Gusts: NA
Location:  29.9°N, 89.9°W
Report Text: KNBG 210355Z 15005KT 10SM FEW060 12/07 A3024 RMK AO2 SLP240 T01220072 $
Loading
Personal Weather Stations






























Interactive Weather Map New forecast layout! Learn more

10-Day Weather Forecast

Advertisements
Track Severe Weather on mobile